sensor_id;sensor_type;location;lat;lon;timestamp;pressure;altitude;pressure_sealevel;temperature;humidity
36222;BME280;22266;52.340;4.962;2023-02-18T00:01:27;102137.66;;;10.47;83.03
36222;BME280;22266;52.340;4.962;2023-02-18T00:03:56;102150.28;;;10.47;83.00
36222;BME280;22266;52.340;4.962;2023-02-18T00:06:26;102139.50;;;10.47;83.21
36222;BME280;22266;52.340;4.962;2023-02-18T00:08:53;102139.81;;;10.44;83.18
36222;BME280;22266;52.340;4.962;2023-02-18T00:11:20;102140.53;;;10.46;83.11
36222;BME280;22266;52.340;4.962;2023-02-18T00:13:51;102134.13;;;10.47;83.01
36222;BME280;22266;52.340;4.962;2023-02-18T00:16:18;102133.44;;;10.45;83.13
36222;BME280;22266;52.340;4.962;2023-02-18T00:18:46;102140.84;;;10.43;82.87
36222;BME280;22266;52.340;4.962;2023-02-18T00:21:12;102127.53;;;10.41;83.60
36222;BME280;22266;52.340;4.962;2023-02-18T00:23:39;102121.97;;;10.34;83.55
36222;BME280;22266;52.340;4.962;2023-02-18T00:26:14;102127.03;;;10.37;83.60
36222;BME280;22266;52.340;4.962;2023-02-18T00:28:41;102126.16;;;10.37;83.41
36222;BME280;22266;52.340;4.962;2023-02-18T00:31:17;102118.25;;;10.35;83.46
36222;BME280;22266;52.340;4.962;2023-02-18T00:33:44;102124.97;;;10.31;83.62
36222;BME280;22266;52.340;4.962;2023-02-18T00:36:14;102119.28;;;10.34;84.10
36222;BME280;22266;52.340;4.962;2023-02-18T00:38:45;102115.03;;;10.32;83.86
36222;BME280;22266;52.340;4.962;2023-02-18T00:41:12;102116.72;;;10.33;83.82
36222;BME280;22266;52.340;4.962;2023-02-18T00:43:39;102115.56;;;10.35;84.14
36222;BME280;22266;52.340;4.962;2023-02-18T00:46:06;102111.19;;;10.34;83.81
36222;BME280;22266;52.340;4.962;2023-02-18T00:48:34;102099.59;;;10.34;84.17
36222;BME280;22266;52.340;4.962;2023-02-18T00:51:02;102103.63;;;10.30;83.95
36222;BME280;22266;52.340;4.962;2023-02-18T00:53:29;102107.81;;;10.32;84.25
36222;BME280;22266;52.340;4.962;2023-02-18T00:55:56;102104.28;;;10.32;84.17
36222;BME280;22266;52.340;4.962;2023-02-18T00:58:23;102104.09;;;10.25;83.98
36222;BME280;22266;52.340;4.962;2023-02-18T01:00:50;102101.00;;;10.20;83.92
36222;BME280;22266;52.340;4.962;2023-02-18T01:03:17;102099.00;;;10.22;84.50
36222;BME280;22266;52.340;4.962;2023-02-18T01:05:44;102099.66;;;10.24;84.74
36222;BME280;22266;52.340;4.962;2023-02-18T01:08:11;102100.84;;;10.22;84.42
36222;BME280;22266;52.340;4.962;2023-02-18T01:10:42;102096.97;;;10.24;84.51
36222;BME280;22266;52.340;4.962;2023-02-18T01:13:09;102096.97;;;10.24;84.63
36222;BME280;22266;52.340;4.962;2023-02-18T01:15:40;102094.19;;;10.26;84.75
36222;BME280;22266;52.340;4.962;2023-02-18T01:18:09;102091.78;;;10.23;84.81
36222;BME280;22266;52.340;4.962;2023-02-18T01:20:37;102080.28;;;10.12;84.99
36222;BME280;22266;52.340;4.962;2023-02-18T01:23:06;102076.44;;;10.15;85.21
36222;BME280;22266;52.340;4.962;2023-02-18T01:25:33;102074.09;;;10.20;85.52
36222;BME280;22266;52.340;4.962;2023-02-18T01:28:00;102067.25;;;10.26;85.77
36222;BME280;22266;52.340;4.962;2023-02-18T01:30:27;102069.47;;;10.30;85.57
36222;BME280;22266;52.340;4.962;2023-02-18T01:32:55;102062.91;;;10.33;84.91
36222;BME280;22266;52.340;4.962;2023-02-18T01:35:22;102065.09;;;10.29;85.09
36222;BME280;22266;52.340;4.962;2023-02-18T01:37:50;102064.09;;;10.30;85.14
36222;BME280;22266;52.340;4.962;2023-02-18T01:40:22;102055.66;;;10.25;85.16
36222;BME280;22266;52.340;4.962;2023-02-18T01:42:50;102076.31;;;10.25;85.27
36222;BME280;22266;52.340;4.962;2023-02-18T01:48:20;102050.78;;;10.29;85.74
36222;BME280;22266;52.340;4.962;2023-02-18T01:50:51;102051.63;;;10.29;86.06
36222;BME280;22266;52.340;4.962;2023-02-18T01:56:12;102031.13;;;10.36;85.69
36222;BME280;22266;52.340;4.962;2023-02-18T01:58:40;102029.13;;;10.38;85.60
36222;BME280;22266;52.340;4.962;2023-02-18T02:01:08;102028.28;;;10.38;85.81
36222;BME280;22266;52.340;4.962;2023-02-18T02:03:35;102018.47;;;10.29;85.56
36222;BME280;22266;52.340;4.962;2023-02-18T02:06:01;102013.09;;;10.29;85.92
36222;BME280;22266;52.340;4.962;2023-02-18T02:08:28;102011.28;;;10.29;85.82
36222;BME280;22266;52.340;4.962;2023-02-18T02:11:37;102000.81;;;10.26;85.60
36222;BME280;22266;52.340;4.962;2023-02-18T02:14:21;101993.78;;;10.25;86.04
36222;BME280;22266;52.340;4.962;2023-02-18T02:17:00;101981.63;;;10.21;86.17
36222;BME280;22266;52.340;4.962;2023-02-18T02:19:54;101976.06;;;10.23;86.57
36222;BME280;22266;52.340;4.962;2023-02-18T02:28:27;101948.97;;;10.24;86.53
36222;BME280;22266;52.340;4.962;2023-02-18T02:31:21;101936.84;;;10.20;86.42
36222;BME280;22266;52.340;4.962;2023-02-18T02:39:42;101922.75;;;10.18;87.09
36222;BME280;22266;52.340;4.962;2023-02-18T02:54:23;101908.78;;;10.23;87.99
36222;BME280;22266;52.340;4.962;2023-02-18T03:00:07;101890.16;;;10.29;87.93
36222;BME280;22266;52.340;4.962;2023-02-18T03:03:04;101897.53;;;10.27;87.30
36222;BME280;22266;52.340;4.962;2023-02-18T03:05:58;101893.84;;;10.28;87.37
36222;BME280;22266;52.340;4.962;2023-02-18T03:08:38;101891.84;;;10.30;87.66
36222;BME280;22266;52.340;4.962;2023-02-18T03:11:10;101877.69;;;10.28;87.46
36222;BME280;22266;52.340;4.962;2023-02-18T03:16:25;101868.97;;;10.26;87.89
36222;BME280;22266;52.340;4.962;2023-02-18T03:21:27;101857.88;;;10.29;88.44
36222;BME280;22266;52.340;4.962;2023-02-18T03:24:03;101841.22;;;10.34;88.79
36222;BME280;22266;52.340;4.962;2023-02-18T03:26:33;101833.47;;;10.39;88.80
36222;BME280;22266;52.340;4.962;2023-02-18T03:29:03;101819.84;;;10.40;88.70
36222;BME280;22266;52.340;4.962;2023-02-18T03:31:33;101819.50;;;10.44;88.95
36222;BME280;22266;52.340;4.962;2023-02-18T03:34:18;101814.13;;;10.44;88.41
36222;BME280;22266;52.340;4.962;2023-02-18T03:36:46;101817.66;;;10.44;88.63
36222;BME280;22266;52.340;4.962;2023-02-18T03:39:18;101809.44;;;10.46;88.65
36222;BME280;22266;52.340;4.962;2023-02-18T03:41:46;101815.66;;;10.46;88.62
36222;BME280;22266;52.340;4.962;2023-02-18T03:44:13;101799.31;;;10.48;88.69
36222;BME280;22266;52.340;4.962;2023-02-18T03:46:41;101791.22;;;10.48;88.66
36222;BME280;22266;52.340;4.962;2023-02-18T03:49:10;101785.84;;;10.39;88.90
36222;BME280;22266;52.340;4.962;2023-02-18T03:51:37;101796.28;;;10.43;89.09
36222;BME280;22266;52.340;4.962;2023-02-18T03:54:03;101790.91;;;10.43;89.01
36222;BME280;22266;52.340;4.962;2023-02-18T03:56:30;101775.78;;;10.42;89.35
36222;BME280;22266;52.340;4.962;2023-02-18T03:58:56;101784.50;;;10.44;89.55
36222;BME280;22266;52.340;4.962;2023-02-18T04:01:22;101791.75;;;10.43;89.49
36222;BME280;22266;52.340;4.962;2023-02-18T04:03:49;101786.88;;;10.47;89.55
36222;BME280;22266;52.340;4.962;2023-02-18T04:06:15;101773.75;;;10.44;89.16
36222;BME280;22266;52.340;4.962;2023-02-18T04:08:42;101758.28;;;10.37;89.42
36222;BME280;22266;52.340;4.962;2023-02-18T04:11:08;101766.00;;;10.32;89.75
36222;BME280;22266;52.340;4.962;2023-02-18T04:13:35;101776.97;;;10.31;89.57
36222;BME280;22266;52.340;4.962;2023-02-18T04:16:01;101781.00;;;10.27;90.52
36222;BME280;22266;52.340;4.962;2023-02-18T04:18:28;101761.97;;;10.28;90.59
36222;BME280;22266;52.340;4.962;2023-02-18T04:20:54;101761.31;;;10.26;90.44
36222;BME280;22266;52.340;4.962;2023-02-18T04:23:21;101766.50;;;10.20;90.65
36222;BME280;22266;52.340;4.962;2023-02-18T04:25:47;101765.88;;;10.26;91.03
36222;BME280;22266;52.340;4.962;2023-02-18T04:28:15;101754.59;;;10.30;91.15
36222;BME280;22266;52.340;4.962;2023-02-18T04:30:43;101744.34;;;10.26;90.62
36222;BME280;22266;52.340;4.962;2023-02-18T04:33:10;101744.63;;;10.23;90.74
36222;BME280;22266;52.340;4.962;2023-02-18T04:35:37;101730.03;;;10.17;91.18
36222;BME280;22266;52.340;4.962;2023-02-18T04:38:08;101726.97;;;10.20;91.70
36222;BME280;22266;52.340;4.962;2023-02-18T04:40:35;101722.78;;;10.18;91.56
36222;BME280;22266;52.340;4.962;2023-02-18T04:43:02;101732.53;;;10.19;91.63
36222;BME280;22266;52.340;4.962;2023-02-18T04:45:29;101729.16;;;10.16;91.85
36222;BME280;22266;52.340;4.962;2023-02-18T04:47:55;101708.13;;;10.20;92.14
36222;BME280;22266;52.340;4.962;2023-02-18T04:50:22;101727.66;;;10.22;91.97
36222;BME280;22266;52.340;4.962;2023-02-18T04:52:49;101717.22;;;10.19;92.05
36222;BME280;22266;52.340;4.962;2023-02-18T04:55:15;101716.72;;;10.15;92.57
36222;BME280;22266;52.340;4.962;2023-02-18T04:57:42;101724.66;;;10.17;nan
36222;BME280;22266;52.340;4.962;2023-02-18T05:00:10;101707.50;;;10.18;92.90
36222;BME280;22266;52.340;4.962;2023-02-18T05:02:39;101716.91;;;10.22;92.61
36222;BME280;22266;52.340;4.962;2023-02-18T05:05:05;101700.59;;;10.15;92.80
36222;BME280;22266;52.340;4.962;2023-02-18T05:07:32;101714.53;;;10.19;92.91
36222;BME280;22266;52.340;4.962;2023-02-18T05:09:58;101705.47;;;10.12;92.47
36222;BME280;22266;52.340;4.962;2023-02-18T05:12:25;101697.41;;;10.12;93.07
36222;BME280;22266;52.340;4.962;2023-02-18T05:14:51;101686.63;;;10.20;92.93
36222;BME280;22266;52.340;4.962;2023-02-18T05:17:18;101695.88;;;10.18;92.69
36222;BME280;22266;52.340;4.962;2023-02-18T05:19:44;101701.09;;;10.11;92.91
36222;BME280;22266;52.340;4.962;2023-02-18T05:22:11;101693.03;;;10.11;92.49
36222;BME280;22266;52.340;4.962;2023-02-18T05:24:37;101680.94;;;10.07;92.69
36222;BME280;22266;52.340;4.962;2023-02-18T05:27:04;101690.00;;;10.14;92.88
36222;BME280;22266;52.340;4.962;2023-02-18T05:29:30;101683.09;;;10.11;92.50
36222;BME280;22266;52.340;4.962;2023-02-18T05:31:56;101681.94;;;10.14;92.88
36222;BME280;22266;52.340;4.962;2023-02-18T05:34:23;101675.34;;;10.16;92.18
36222;BME280;22266;52.340;4.962;2023-02-18T05:36:49;101674.53;;;10.16;92.34
36222;BME280;22266;52.340;4.962;2023-02-18T05:39:16;101690.66;;;10.16;92.12
36222;BME280;22266;52.340;4.962;2023-02-18T05:41:42;101683.09;;;10.11;91.91
36222;BME280;22266;52.340;4.962;2023-02-18T05:44:09;101672.03;;;10.06;92.16
36222;BME280;22266;52.340;4.962;2023-02-18T05:46:54;101659.22;;;10.08;91.97
36222;BME280;22266;52.340;4.962;2023-02-18T05:49:20;101666.31;;;10.01;92.16
36222;BME280;22266;52.340;4.962;2023-02-18T05:51:47;101666.81;;;10.05;92.43
36222;BME280;22266;52.340;4.962;2023-02-18T05:54:13;101667.47;;;10.07;91.67
36222;BME280;22266;52.340;4.962;2023-02-18T05:56:40;101669.66;;;10.03;91.94
36222;BME280;22266;52.340;4.962;2023-02-18T05:59:06;101664.78;;;10.07;91.72
36222;BME280;22266;52.340;4.962;2023-02-18T06:01:33;101671.19;;;10.06;91.92
36222;BME280;22266;52.340;4.962;2023-02-18T06:03:59;101668.16;;;10.09;91.46
36222;BME280;22266;52.340;4.962;2023-02-18T06:06:26;101665.94;;;10.12;91.60
36222;BME280;22266;52.340;4.962;2023-02-18T06:08:52;101675.56;;;10.07;91.56
36222;BME280;22266;52.340;4.962;2023-02-18T06:11:18;101653.19;;;10.06;91.34
36222;BME280;22266;52.340;4.962;2023-02-18T06:13:45;101661.25;;;10.06;91.04
36222;BME280;22266;52.340;4.962;2023-02-18T06:16:12;101664.13;;;10.05;91.42
36222;BME280;22266;52.340;4.962;2023-02-18T06:18:38;101664.16;;;9.97;90.88
36222;BME280;22266;52.340;4.962;2023-02-18T06:21:05;101666.47;;;10.08;90.96
36222;BME280;22266;52.340;4.962;2023-02-18T06:23:32;101648.97;;;10.04;90.99
36222;BME280;22266;52.340;4.962;2023-02-18T06:25:58;101666.66;;;10.06;90.67
36222;BME280;22266;52.340;4.962;2023-02-18T06:28:25;101653.19;;;10.06;90.64
36222;BME280;22266;52.340;4.962;2023-02-18T06:30:51;101650.19;;;10.01;90.54
36222;BME280;22266;52.340;4.962;2023-02-18T06:33:18;101660.25;;;9.99;90.55
36222;BME280;22266;52.340;4.962;2023-02-18T06:36:05;101649.81;;;10.04;90.69
36222;BME280;22266;52.340;4.962;2023-02-18T06:38:39;101659.44;;;9.99;91.02
36222;BME280;22266;52.340;4.962;2023-02-18T06:41:05;101647.13;;;10.04;90.31
36222;BME280;22266;52.340;4.962;2023-02-18T06:43:32;101649.50;;;9.99;90.69
36222;BME280;22266;52.340;4.962;2023-02-18T06:45:58;101662.94;;;9.99;90.73
36222;BME280;22266;52.340;4.962;2023-02-18T06:48:25;101658.41;;;10.00;90.45
36222;BME280;22266;52.340;4.962;2023-02-18T06:50:51;101654.72;;;10.01;90.71
36222;BME280;22266;52.340;4.962;2023-02-18T06:53:18;101651.34;;;9.99;90.70
36222;BME280;22266;52.340;4.962;2023-02-18T06:55:45;101655.91;;;9.98;90.43
36222;BME280;22266;52.340;4.962;2023-02-18T06:58:12;101638.94;;;9.98;90.59
36222;BME280;22266;52.340;4.962;2023-02-18T07:00:39;101640.94;;;9.96;90.69
36222;BME280;22266;52.340;4.962;2023-02-18T07:03:06;101642.25;;;10.00;90.62
36222;BME280;22266;52.340;4.962;2023-02-18T07:05:33;101634.19;;;10.00;90.39
36222;BME280;22266;52.340;4.962;2023-02-18T07:08:00;101636.06;;;9.99;90.19
36222;BME280;22266;52.340;4.962;2023-02-18T07:10:26;101637.06;;;9.98;90.10
36222;BME280;22266;52.340;4.962;2023-02-18T07:12:53;101638.09;;;9.97;90.41
36222;BME280;22266;52.340;4.962;2023-02-18T07:15:19;101635.22;;;9.90;90.29
36222;BME280;22266;52.340;4.962;2023-02-18T07:17:50;101637.41;;;9.87;90.40
36222;BME280;22266;52.340;4.962;2023-02-18T07:20:18;101637.41;;;9.87;90.43
36222;BME280;22266;52.340;4.962;2023-02-18T07:22:45;101634.06;;;9.85;90.16
36222;BME280;22266;52.340;4.962;2023-02-18T07:25:12;101630.56;;;9.84;89.96
36222;BME280;22266;52.340;4.962;2023-02-18T07:27:39;101638.25;;;9.79;90.02
36222;BME280;22266;52.340;4.962;2023-02-18T07:30:06;101643.66;;;9.71;90.50
36222;BME280;22266;52.340;4.962;2023-02-18T07:32:32;101632.06;;;9.71;90.42
36222;BME280;22266;52.340;4.962;2023-02-18T07:34:59;101656.94;;;9.73;90.37
36222;BME280;22266;52.340;4.962;2023-02-18T07:37:26;101639.28;;;9.70;90.62
36222;BME280;22266;52.340;4.962;2023-02-18T07:39:52;101638.44;;;9.70;90.65
36222;BME280;22266;52.340;4.962;2023-02-18T07:42:19;101639.47;;;9.69;90.18
36222;BME280;22266;52.340;4.962;2023-02-18T07:44:45;101663.66;;;9.69;89.93
36222;BME280;22266;52.340;4.962;2023-02-18T07:47:14;101658.75;;;9.64;90.23
36222;BME280;22266;52.340;4.962;2023-02-18T07:49:42;101661.97;;;9.59;90.05
36222;BME280;22266;52.340;4.962;2023-02-18T07:52:08;101664.50;;;9.61;89.95
36222;BME280;22266;52.340;4.962;2023-02-18T07:54:35;101655.22;;;9.63;89.61
36222;BME280;22266;52.340;4.962;2023-02-18T07:57:02;101662.47;;;9.63;89.04
36222;BME280;22266;52.340;4.962;2023-02-18T07:59:28;101673.91;;;9.65;88.71
36222;BME280;22266;52.340;4.962;2023-02-18T08:01:55;101681.97;;;9.57;88.63
36222;BME280;22266;52.340;4.962;2023-02-18T08:04:21;101670.38;;;9.56;88.73
36222;BME280;22266;52.340;4.962;2023-02-18T08:06:48;101670.53;;;9.55;88.45
36222;BME280;22266;52.340;4.962;2023-02-18T08:09:16;101685.63;;;9.56;88.80
36222;BME280;22266;52.340;4.962;2023-02-18T08:11:43;101672.56;;;9.45;88.62
36222;BME280;22266;52.340;4.962;2023-02-18T08:14:10;101665.84;;;9.49;88.51
36222;BME280;22266;52.340;4.962;2023-02-18T08:16:37;101666.81;;;9.39;88.49
36222;BME280;22266;52.340;4.962;2023-02-18T08:19:03;101674.41;;;9.44;88.83
36222;BME280;22266;52.340;4.962;2023-02-18T08:21:30;101668.16;;;9.44;88.44
36222;BME280;22266;52.340;4.962;2023-02-18T08:23:58;101674.72;;;9.49;87.52
36222;BME280;22266;52.340;4.962;2023-02-18T08:26:25;101656.06;;;9.48;87.77
36222;BME280;22266;52.340;4.962;2023-02-18T08:28:52;101666.16;;;9.54;87.17
36222;BME280;22266;52.340;4.962;2023-02-18T08:31:23;101673.41;;;9.53;86.98
36222;BME280;22266;52.340;4.962;2023-02-18T08:33:52;101673.41;;;9.53;86.70
36222;BME280;22266;52.340;4.962;2023-02-18T08:36:19;101673.53;;;9.52;86.53
36222;BME280;22266;52.340;4.962;2023-02-18T08:38:45;101678.91;;;9.60;85.97
36222;BME280;22266;52.340;4.962;2023-02-18T08:41:13;101672.19;;;9.56;85.53
36222;BME280;22266;52.340;4.962;2023-02-18T08:43:40;101672.38;;;9.62;85.32
36222;BME280;22266;52.340;4.962;2023-02-18T08:46:06;101659.44;;;9.66;85.02
36222;BME280;22266;52.340;4.962;2023-02-18T08:48:42;101678.44;;;9.73;84.88
36222;BME280;22266;52.340;4.962;2023-02-18T08:51:18;101680.97;;;9.66;84.44
36222;BME280;22266;52.340;4.962;2023-02-18T08:53:45;101684.28;;;9.60;84.47
36222;BME280;22266;52.340;4.962;2023-02-18T08:56:13;101672.06;;;9.57;84.21
36222;BME280;22266;52.340;4.962;2023-02-18T08:58:40;101670.53;;;9.63;83.94
36222;BME280;22266;52.340;4.962;2023-02-18T09:01:09;101683.81;;;9.73;83.96
36222;BME280;22266;52.340;4.962;2023-02-18T09:03:37;101680.63;;;9.69;83.35
36222;BME280;22266;52.340;4.962;2023-02-18T09:06:04;101679.78;;;9.69;83.98
36222;BME280;22266;52.340;4.962;2023-02-18T09:08:31;101680.13;;;9.65;83.95
36222;BME280;22266;52.340;4.962;2023-02-18T09:11:00;101702.13;;;9.69;84.29
36222;BME280;22266;52.340;4.962;2023-02-18T09:13:27;101705.34;;;9.73;83.19
36222;BME280;22266;52.340;4.962;2023-02-18T09:16:01;101700.94;;;9.63;83.50
36222;BME280;22266;52.340;4.962;2023-02-18T09:18:29;101704.97;;;9.68;83.25
36222;BME280;22266;52.340;4.962;2023-02-18T09:20:57;101717.59;;;9.75;83.12
36222;BME280;22266;52.340;4.962;2023-02-18T09:23:26;101714.06;;;9.75;82.96
36222;BME280;22266;52.340;4.962;2023-02-18T09:25:53;101718.09;;;9.71;82.89
36222;BME280;22266;52.340;4.962;2023-02-18T09:28:20;101713.72;;;9.78;82.96
36222;BME280;22266;52.340;4.962;2023-02-18T09:30:46;101717.75;;;9.82;83.31
36222;BME280;22266;52.340;4.962;2023-02-18T09:33:13;101727.69;;;9.81;83.34
36222;BME280;22266;52.340;4.962;2023-02-18T09:35:44;101706.69;;;9.85;82.86
36222;BME280;22266;52.340;4.962;2023-02-18T09:38:15;101716.56;;;9.76;83.10
36222;BME280;22266;52.340;4.962;2023-02-18T09:40:49;101719.25;;;9.76;82.95
36222;BME280;22266;52.340;4.962;2023-02-18T09:43:42;101728.69;;;9.88;82.49
36222;BME280;22266;52.340;4.962;2023-02-18T09:46:31;101723.81;;;9.92;82.90
36222;BME280;22266;52.340;4.962;2023-02-18T09:49:01;101737.59;;;9.89;82.82
36222;BME280;22266;52.340;4.962;2023-02-18T09:51:29;101727.69;;;9.89;82.45
36222;BME280;22266;52.340;4.962;2023-02-18T09:53:56;101726.16;;;9.95;82.22
36222;BME280;22266;52.340;4.962;2023-02-18T09:56:30;101734.06;;;9.97;82.52
36222;BME280;22266;52.340;4.962;2023-02-18T09:59:00;101737.94;;;9.94;82.44
36222;BME280;22266;52.340;4.962;2023-02-18T10:01:32;101733.38;;;9.95;82.68
36222;BME280;22266;52.340;4.962;2023-02-18T10:04:09;101737.41;;;10.07;82.60
36222;BME280;22266;52.340;4.962;2023-02-18T10:06:38;101734.56;;;10.00;82.21
36222;BME280;22266;52.340;4.962;2023-02-18T10:09:16;101729.88;;;10.02;82.23
36222;BME280;22266;52.340;4.962;2023-02-18T10:11:47;101733.56;;;10.09;81.87
36222;BME280;22266;52.340;4.962;2023-02-18T10:14:14;101734.22;;;10.11;82.02
36222;BME280;22266;52.340;4.962;2023-02-18T10:16:42;101733.06;;;10.14;82.19
36222;BME280;22266;52.340;4.962;2023-02-18T10:19:25;101736.56;;;10.23;82.23
36222;BME280;22266;52.340;4.962;2023-02-18T10:21:53;101756.09;;;10.25;82.11
36222;BME280;22266;52.340;4.962;2023-02-18T10:24:35;101742.09;;;10.54;83.67
36222;BME280;22266;52.340;4.962;2023-02-18T10:27:05;101749.41;;;10.84;82.64
36222;BME280;22266;52.340;4.962;2023-02-18T10:29:32;101743.97;;;11.01;80.97
36222;BME280;22266;52.340;4.962;2023-02-18T10:37:06;101751.59;;;11.28;79.25
36222;BME280;22266;52.340;4.962;2023-02-18T10:47:42;101768.00;;;11.42;77.82
36222;BME280;22266;52.340;4.962;2023-02-18T10:50:24;101763.06;;;11.53;78.20
36222;BME280;22266;52.340;4.962;2023-02-18T10:52:55;101769.19;;;11.70;79.42
36222;BME280;22266;52.340;4.962;2023-02-18T10:55:45;101759.34;;;11.77;78.40
36222;BME280;22266;52.340;4.962;2023-02-18T11:00:59;101763.34;;;11.35;78.77
36222;BME280;22266;52.340;4.962;2023-02-18T11:03:45;101766.44;;;11.24;78.64
36222;BME280;22266;52.340;4.962;2023-02-18T11:06:20;101777.59;;;11.13;78.48
36222;BME280;22266;52.340;4.962;2023-02-18T11:08:48;101764.44;;;11.10;79.33
36222;BME280;22266;52.340;4.962;2023-02-18T11:11:22;101769.38;;;11.06;79.96
36222;BME280;22266;52.340;4.962;2023-02-18T11:13:54;101781.06;;;10.91;80.72
36222;BME280;22266;52.340;4.962;2023-02-18T11:16:22;101761.03;;;10.85;81.26
36222;BME280;22266;52.340;4.962;2023-02-18T11:18:49;101749.28;;;10.78;81.74
36222;BME280;22266;52.340;4.962;2023-02-18T11:21:31;101761.03;;;10.77;82.02
36222;BME280;22266;52.340;4.962;2023-02-18T11:24:14;101767.25;;;10.77;81.71
36222;BME280;22266;52.340;4.962;2023-02-18T11:26:41;101775.69;;;10.82;81.78
36222;BME280;22266;52.340;4.962;2023-02-18T11:29:22;101771.94;;;10.92;81.21
36222;BME280;22266;52.340;4.962;2023-02-18T11:31:52;101765.91;;;10.81;81.38
36222;BME280;22266;52.340;4.962;2023-02-18T11:34:23;101767.09;;;10.87;80.79
36222;BME280;22266;52.340;4.962;2023-02-18T11:36:52;101768.56;;;10.89;81.04
36222;BME280;22266;52.340;4.962;2023-02-18T11:39:26;101772.63;;;10.85;81.32
36222;BME280;22266;52.340;4.962;2023-02-18T11:42:00;101772.13;;;10.90;80.86
36222;BME280;22266;52.340;4.962;2023-02-18T11:44:34;101777.13;;;11.01;81.12
36222;BME280;22266;52.340;4.962;2023-02-18T11:49:42;101769.34;;;11.14;80.20
36222;BME280;22266;52.340;4.962;2023-02-18T11:52:40;101762.69;;;11.25;80.06
36222;BME280;22266;52.340;4.962;2023-02-18T11:55:27;101767.31;;;11.17;79.89
36222;BME280;22266;52.340;4.962;2023-02-18T11:57:58;101757.06;;;11.12;80.12
36222;BME280;22266;52.340;4.962;2023-02-18T12:00:43;101773.06;;;11.05;80.28
36222;BME280;22266;52.340;4.962;2023-02-18T12:06:04;101759.47;;;11.30;80.04
36222;BME280;22266;52.340;4.962;2023-02-18T12:08:48;101770.75;;;11.33;79.58
36222;BME280;22266;52.340;4.962;2023-02-18T12:11:26;101769.38;;;11.37;79.75
36222;BME280;22266;52.340;4.962;2023-02-18T12:13:56;101770.06;;;11.39;79.46
36222;BME280;22266;52.340;4.962;2023-02-18T12:22:15;101772.06;;;11.37;79.10
36222;BME280;22266;52.340;4.962;2023-02-18T12:30:47;101753.41;;;11.36;79.36
36222;BME280;22266;52.340;4.962;2023-02-18T12:41:28;101759.81;;;11.58;79.18
36222;BME280;22266;52.340;4.962;2023-02-18T12:47:33;101767.31;;;11.71;78.61
36222;BME280;22266;52.340;4.962;2023-02-18T12:49:43;101774.09;;;11.67;78.32
36222;BME280;22266;52.340;4.962;2023-02-18T12:52:35;101772.13;;;11.60;78.59
36222;BME280;22266;52.340;4.962;2023-02-18T12:58:07;101776.38;;;11.55;78.49
36222;BME280;22266;52.340;4.962;2023-02-18T13:14:27;101790.22;;;11.52;79.35
36222;BME280;22266;52.340;4.962;2023-02-18T13:16:57;101782.41;;;11.57;78.94
36222;BME280;22266;52.340;4.962;2023-02-18T13:19:31;101778.28;;;11.69;78.58
36222;BME280;22266;52.340;4.962;2023-02-18T13:22:02;101777.41;;;11.77;78.36
36222;BME280;22266;52.340;4.962;2023-02-18T13:24:35;101786.16;;;11.87;78.04
36222;BME280;22266;52.340;4.962;2023-02-18T13:27:39;101776.00;;;11.89;78.11
36222;BME280;22266;52.340;4.962;2023-02-18T13:30:24;101775.28;;;11.95;77.41
36222;BME280;22266;52.340;4.962;2023-02-18T13:40:51;101778.16;;;11.94;76.62
36222;BME280;22266;52.340;4.962;2023-02-18T13:43:32;101777.25;;;12.01;76.19
36222;BME280;22266;52.340;4.962;2023-02-18T13:46:11;101774.63;;;11.93;76.51
36222;BME280;22266;52.340;4.962;2023-02-18T13:51:16;101781.53;;;11.96;76.18
36222;BME280;22266;52.340;4.962;2023-02-18T13:53:49;101792.81;;;11.99;76.25
36222;BME280;22266;52.340;4.962;2023-02-18T13:56:28;101789.31;;;11.91;76.56
36222;BME280;22266;52.340;4.962;2023-02-18T13:59:06;101796.41;;;11.92;76.52
36222;BME280;22266;52.340;4.962;2023-02-18T14:01:41;101785.97;;;11.88;76.83
36222;BME280;22266;52.340;4.962;2023-02-18T14:09:56;101791.09;;;11.75;76.88
36222;BME280;22266;52.340;4.962;2023-02-18T14:12:39;101800.84;;;11.76;77.08
36222;BME280;22266;52.340;4.962;2023-02-18T14:20:43;101806.69;;;11.57;77.39
36222;BME280;22266;52.340;4.962;2023-02-18T14:28:41;101808.25;;;11.51;77.71
36222;BME280;22266;52.340;4.962;2023-02-18T14:31:45;101808.75;;;11.55;77.88
36222;BME280;22266;52.340;4.962;2023-02-18T14:34:31;101813.41;;;11.61;77.74
36222;BME280;22266;52.340;4.962;2023-02-18T14:45:18;101815.75;;;11.64;77.66
36222;BME280;22266;52.340;4.962;2023-02-18T14:50:20;101816.09;;;11.61;77.66
36222;BME280;22266;52.340;4.962;2023-02-18T14:52:50;101809.88;;;11.60;77.80
36222;BME280;22266;52.340;4.962;2023-02-18T14:55:22;101824.00;;;11.62;78.45
36222;BME280;22266;52.340;4.962;2023-02-18T14:58:07;101807.66;;;11.64;78.21
36222;BME280;22266;52.340;4.962;2023-02-18T15:00:40;101821.16;;;11.64;78.13
36222;BME280;22266;52.340;4.962;2023-02-18T15:03:16;101819.00;;;11.59;77.94
36222;BME280;22266;52.340;4.962;2023-02-18T15:05:43;101835.31;;;11.58;78.13
36222;BME280;22266;52.340;4.962;2023-02-18T15:08:21;101818.84;;;11.53;78.37
36222;BME280;22266;52.340;4.962;2023-02-18T15:10:52;101820.38;;;11.55;78.59
36222;BME280;22266;52.340;4.962;2023-02-18T15:13:43;101824.97;;;11.47;78.72
36222;BME280;22266;52.340;4.962;2023-02-18T15:16:31;101819.69;;;11.53;78.95
36222;BME280;22266;52.340;4.962;2023-02-18T15:19:01;101821.34;;;11.54;78.74
36222;BME280;22266;52.340;4.962;2023-02-18T15:21:31;101829.97;;;11.50;78.65
36222;BME280;22266;52.340;4.962;2023-02-18T15:24:20;101829.97;;;11.50;78.81
36222;BME280;22266;52.340;4.962;2023-02-18T15:26:49;101827.28;;;11.50;78.60
36222;BME280;22266;52.340;4.962;2023-02-18T15:29:21;101825.34;;;11.35;78.89